Main page
METAR-TAF:

METAR-TAF

Airports :

Nanning Wuxu International Airport

Nanning, China

latitude: 22-49N, longitude: 108-21E, elevation: 73 m

Current weather observation

The report was made 56 minutes ago, at 03:00 UTC
Wind 8 kt from the South/Southwest, varying between South and Southwest
Temperature 23°C
Humidity 69%
Pressure 1019 hPa
Visibility 10 km or more
Scattered clouds at a height of 1600 ft

METAR: ZGNN 250300Z 21004MPS 170V230 9999 SCT016 23/17 Q1019 NOSIG

Time: 11:56 (03:56 UTC)

Forecast

The report was made 6 hours and 50 minutes ago, at 21:06 UTC
Forecast valid from 25 at 00 UTC to 25 at 24 UTC
Wind 6 kt from the South/Southeast
Visibility: 5000 m
Broken clouds at a height of 3000 ft
mist

TAF: ZGNN 242106Z 2500/2524 16003MPS 5000 BR BKN030 TX26/2507Z TN17/2522Z

Weather observations and forecasts of more than 4000 airports (METAR and TAF reports).

The available stations are represented by yellow and red dots on the map.

Hover mouse over dot to see the name of the station.

Then click to see weather observations and forecasts.

To change the map : click on the green buttons with a black cross to zoom in, on the green button with a dash to zoom out, or on the green arrows for adjacent maps.


METAR-TAF: